sensor_id;sensor_type;location;lat;lon;timestamp;temperature;humidity
51661;DHT22;37741;49.748;8.490;2022-09-14T00:01:17;19.90;79.30
51661;DHT22;37741;49.748;8.490;2022-09-14T00:03:43;19.90;80.00
51661;DHT22;37741;49.748;8.490;2022-09-14T00:06:14;19.90;78.90
51661;DHT22;37741;49.748;8.490;2022-09-14T00:08:40;19.90;78.80
51661;DHT22;37741;49.748;8.490;2022-09-14T00:11:08;19.90;79.20
51661;DHT22;37741;49.748;8.490;2022-09-14T00:13:36;19.90;79.60
51661;DHT22;37741;49.748;8.490;2022-09-14T00:16:04;20.00;78.80
51661;DHT22;37741;49.748;8.490;2022-09-14T00:18:31;19.90;79.00
51661;DHT22;37741;49.748;8.490;2022-09-14T00:21:06;19.90;78.90
51661;DHT22;37741;49.748;8.490;2022-09-14T00:23:34;19.90;79.30
51661;DHT22;37741;49.748;8.490;2022-09-14T00:26:04;19.90;79.10
51661;DHT22;37741;49.748;8.490;2022-09-14T00:28:30;19.90;79.00
51661;DHT22;37741;49.748;8.490;2022-09-14T00:31:03;19.90;79.40
51661;DHT22;37741;49.748;8.490;2022-09-14T00:33:28;19.90;79.10
51661;DHT22;37741;49.748;8.490;2022-09-14T00:35:54;19.90;79.30
51661;DHT22;37741;49.748;8.490;2022-09-14T00:38:19;19.90;79.30
51661;DHT22;37741;49.748;8.490;2022-09-14T00:40:55;19.90;79.60
51661;DHT22;37741;49.748;8.490;2022-09-14T00:43:21;19.80;78.80
51661;DHT22;37741;49.748;8.490;2022-09-14T00:45:46;19.80;78.50
51661;DHT22;37741;49.748;8.490;2022-09-14T00:48:12;19.80;79.00
51661;DHT22;37741;49.748;8.490;2022-09-14T00:50:38;19.80;78.70
51661;DHT22;37741;49.748;8.490;2022-09-14T00:53:04;19.80;78.70
51661;DHT22;37741;49.748;8.490;2022-09-14T00:55:30;19.70;78.60
51661;DHT22;37741;49.748;8.490;2022-09-14T00:57:57;19.70;78.60
51661;DHT22;37741;49.748;8.490;2022-09-14T01:00:25;19.70;78.70
51661;DHT22;37741;49.748;8.490;2022-09-14T01:02:51;19.70;79.70
51661;DHT22;37741;49.748;8.490;2022-09-14T01:05:17;19.60;80.00
51661;DHT22;37741;49.748;8.490;2022-09-14T01:08:20;19.70;80.10
51661;DHT22;37741;49.748;8.490;2022-09-14T01:16:28;19.50;80.70
51661;DHT22;37741;49.748;8.490;2022-09-14T01:19:00;19.50;80.50
51661;DHT22;37741;49.748;8.490;2022-09-14T01:21:32;19.50;81.10
51661;DHT22;37741;49.748;8.490;2022-09-14T01:35:24;19.40;81.80
51661;DHT22;37741;49.748;8.490;2022-09-14T01:37:59;19.40;81.60
51661;DHT22;37741;49.748;8.490;2022-09-14T01:40:32;19.40;82.00
51661;DHT22;37741;49.748;8.490;2022-09-14T01:45:59;19.30;81.20
51661;DHT22;37741;49.748;8.490;2022-09-14T01:48:34;19.40;81.10
51661;DHT22;37741;49.748;8.490;2022-09-14T01:51:06;19.30;80.90
51661;DHT22;37741;49.748;8.490;2022-09-14T01:53:44;19.30;80.90
51661;DHT22;37741;49.748;8.490;2022-09-14T01:59:02;19.30;80.70
51661;DHT22;37741;49.748;8.490;2022-09-14T02:01:35;19.30;80.70
51661;DHT22;37741;49.748;8.490;2022-09-14T02:04:06;19.30;81.30
51661;DHT22;37741;49.748;8.490;2022-09-14T02:06:36;19.20;80.60
51661;DHT22;37741;49.748;8.490;2022-09-14T02:09:09;19.20;80.70
51661;DHT22;37741;49.748;8.490;2022-09-14T02:11:35;19.20;80.80
51661;DHT22;37741;49.748;8.490;2022-09-14T02:14:02;19.20;80.80
51661;DHT22;37741;49.748;8.490;2022-09-14T02:16:29;19.20;80.80
51661;DHT22;37741;49.748;8.490;2022-09-14T02:18:54;19.20;80.80
51661;DHT22;37741;49.748;8.490;2022-09-14T02:21:26;19.20;81.00
51661;DHT22;37741;49.748;8.490;2022-09-14T02:23:52;19.20;81.10
51661;DHT22;37741;49.748;8.490;2022-09-14T02:26:19;19.20;81.10
51661;DHT22;37741;49.748;8.490;2022-09-14T02:28:46;19.20;81.10
51661;DHT22;37741;49.748;8.490;2022-09-14T02:31:29;19.10;81.00
51661;DHT22;37741;49.748;8.490;2022-09-14T02:34:36;19.20;81.10
51661;DHT22;37741;49.748;8.490;2022-09-14T02:54:19;19.10;81.60
51661;DHT22;37741;49.748;8.490;2022-09-14T02:56:47;19.10;81.80
51661;DHT22;37741;49.748;8.490;2022-09-14T02:59:12;19.10;81.80
51661;DHT22;37741;49.748;8.490;2022-09-14T03:01:38;19.10;81.70
51661;DHT22;37741;49.748;8.490;2022-09-14T03:04:04;19.00;81.60
51661;DHT22;37741;49.748;8.490;2022-09-14T03:06:29;19.00;81.60
51661;DHT22;37741;49.748;8.490;2022-09-14T03:08:55;19.00;81.70
51661;DHT22;37741;49.748;8.490;2022-09-14T03:11:21;19.00;81.90
51661;DHT22;37741;49.748;8.490;2022-09-14T03:13:46;19.00;81.70
51661;DHT22;37741;49.748;8.490;2022-09-14T03:16:15;19.00;81.70
51661;DHT22;37741;49.748;8.490;2022-09-14T03:18:41;19.00;81.70
51661;DHT22;37741;49.748;8.490;2022-09-14T03:21:13;19.00;82.00
51661;DHT22;37741;49.748;8.490;2022-09-14T03:23:42;19.00;82.20
51661;DHT22;37741;49.748;8.490;2022-09-14T03:26:13;19.00;81.90
51661;DHT22;37741;49.748;8.490;2022-09-14T03:28:39;19.00;82.00
51661;DHT22;37741;49.748;8.490;2022-09-14T03:31:07;19.00;82.10
51661;DHT22;37741;49.748;8.490;2022-09-14T03:33:33;19.00;81.80
51661;DHT22;37741;49.748;8.490;2022-09-14T03:35:59;19.00;82.30
51661;DHT22;37741;49.748;8.490;2022-09-14T03:38:25;19.10;82.50
51661;DHT22;37741;49.748;8.490;2022-09-14T03:40:55;19.10;81.80
51661;DHT22;37741;49.748;8.490;2022-09-14T03:43:22;19.10;81.60
51661;DHT22;37741;49.748;8.490;2022-09-14T03:45:48;19.10;82.00
51661;DHT22;37741;49.748;8.490;2022-09-14T03:48:13;19.10;82.30
51661;DHT22;37741;49.748;8.490;2022-09-14T03:50:40;19.10;81.60
51661;DHT22;37741;49.748;8.490;2022-09-14T03:53:07;19.20;81.50
51661;DHT22;37741;49.748;8.490;2022-09-14T03:55:32;19.10;81.70
51661;DHT22;37741;49.748;8.490;2022-09-14T03:57:58;19.10;82.10
51661;DHT22;37741;49.748;8.490;2022-09-14T04:00:24;19.10;81.90
51661;DHT22;37741;49.748;8.490;2022-09-14T04:02:50;19.10;82.40
51661;DHT22;37741;49.748;8.490;2022-09-14T04:05:15;19.10;82.40
51661;DHT22;37741;49.748;8.490;2022-09-14T04:07:41;19.20;81.60
51661;DHT22;37741;49.748;8.490;2022-09-14T04:10:07;19.10;82.20
51661;DHT22;37741;49.748;8.490;2022-09-14T04:12:34;19.10;82.00
51661;DHT22;37741;49.748;8.490;2022-09-14T04:15:00;19.20;82.10
51661;DHT22;37741;49.748;8.490;2022-09-14T04:17:27;19.10;82.00
51661;DHT22;37741;49.748;8.490;2022-09-14T04:19:53;19.20;81.80
51661;DHT22;37741;49.748;8.490;2022-09-14T04:22:18;19.10;81.50
51661;DHT22;37741;49.748;8.490;2022-09-14T04:24:44;19.10;81.80
51661;DHT22;37741;49.748;8.490;2022-09-14T04:27:10;19.10;81.80
51661;DHT22;37741;49.748;8.490;2022-09-14T04:29:36;19.10;81.80
51661;DHT22;37741;49.748;8.490;2022-09-14T04:32:02;19.10;82.00
51661;DHT22;37741;49.748;8.490;2022-09-14T04:34:27;19.10;81.70
51661;DHT22;37741;49.748;8.490;2022-09-14T04:36:53;19.10;81.80
51661;DHT22;37741;49.748;8.490;2022-09-14T04:39:18;19.10;82.10
51661;DHT22;37741;49.748;8.490;2022-09-14T04:41:44;19.10;81.90
51661;DHT22;37741;49.748;8.490;2022-09-14T04:44:10;19.00;81.90
51661;DHT22;37741;49.748;8.490;2022-09-14T04:46:37;19.10;82.10
51661;DHT22;37741;49.748;8.490;2022-09-14T04:49:04;19.00;82.10
51661;DHT22;37741;49.748;8.490;2022-09-14T04:51:32;19.00;81.90
51661;DHT22;37741;49.748;8.490;2022-09-14T04:53:59;19.00;81.80
51661;DHT22;37741;49.748;8.490;2022-09-14T04:56:27;19.00;82.20
51661;DHT22;37741;49.748;8.490;2022-09-14T04:58:57;19.00;82.20
51661;DHT22;37741;49.748;8.490;2022-09-14T05:01:27;19.00;82.40
51661;DHT22;37741;49.748;8.490;2022-09-14T05:03:53;19.00;82.50
51661;DHT22;37741;49.748;8.490;2022-09-14T05:06:26;18.90;82.60
51661;DHT22;37741;49.748;8.490;2022-09-14T05:08:53;18.90;82.70
51661;DHT22;37741;49.748;8.490;2022-09-14T05:11:21;18.90;82.70
51661;DHT22;37741;49.748;8.490;2022-09-14T05:13:47;18.90;82.70
51661;DHT22;37741;49.748;8.490;2022-09-14T05:18:44;18.90;83.50
51661;DHT22;37741;49.748;8.490;2022-09-14T05:21:12;18.80;82.90
51661;DHT22;37741;49.748;8.490;2022-09-14T05:23:38;18.80;82.90
51661;DHT22;37741;49.748;8.490;2022-09-14T05:26:04;18.80;83.00
51661;DHT22;37741;49.748;8.490;2022-09-14T05:28:32;18.80;83.50
51661;DHT22;37741;49.748;8.490;2022-09-14T05:30:58;18.80;83.20
51661;DHT22;37741;49.748;8.490;2022-09-14T05:33:23;18.80;83.10
51661;DHT22;37741;49.748;8.490;2022-09-14T05:35:50;18.80;83.00
51661;DHT22;37741;49.748;8.490;2022-09-14T05:38:16;18.80;83.00
51661;DHT22;37741;49.748;8.490;2022-09-14T05:40:42;18.80;82.90
51661;DHT22;37741;49.748;8.490;2022-09-14T05:43:08;18.80;83.00
51661;DHT22;37741;49.748;8.490;2022-09-14T05:45:34;18.80;83.00
51661;DHT22;37741;49.748;8.490;2022-09-14T05:48:00;18.70;83.00
51661;DHT22;37741;49.748;8.490;2022-09-14T05:50:30;18.80;83.10
51661;DHT22;37741;49.748;8.490;2022-09-14T05:52:55;18.70;83.10
51661;DHT22;37741;49.748;8.490;2022-09-14T05:55:23;18.70;83.00
51661;DHT22;37741;49.748;8.490;2022-09-14T05:57:50;18.70;83.00
51661;DHT22;37741;49.748;8.490;2022-09-14T06:00:16;18.70;83.00
51661;DHT22;37741;49.748;8.490;2022-09-14T06:02:49;18.70;83.00
51661;DHT22;37741;49.748;8.490;2022-09-14T06:05:16;18.70;83.00
51661;DHT22;37741;49.748;8.490;2022-09-14T06:07:41;18.70;82.80
51661;DHT22;37741;49.748;8.490;2022-09-14T06:10:08;18.70;83.00
51661;DHT22;37741;49.748;8.490;2022-09-14T06:12:34;18.70;82.90
51661;DHT22;37741;49.748;8.490;2022-09-14T06:14:59;18.70;82.80
51661;DHT22;37741;49.748;8.490;2022-09-14T06:17:25;18.70;82.90
51661;DHT22;37741;49.748;8.490;2022-09-14T06:19:50;18.70;82.70
51661;DHT22;37741;49.748;8.490;2022-09-14T06:22:16;18.70;82.70
51661;DHT22;37741;49.748;8.490;2022-09-14T06:24:41;18.70;82.70
51661;DHT22;37741;49.748;8.490;2022-09-14T06:27:07;18.70;82.70
51661;DHT22;37741;49.748;8.490;2022-09-14T06:29:34;18.70;82.90
51661;DHT22;37741;49.748;8.490;2022-09-14T06:31:59;18.70;82.70
51661;DHT22;37741;49.748;8.490;2022-09-14T06:34:25;18.70;82.60
51661;DHT22;37741;49.748;8.490;2022-09-14T06:36:51;18.70;82.60
51661;DHT22;37741;49.748;8.490;2022-09-14T06:39:17;18.70;82.60
51661;DHT22;37741;49.748;8.490;2022-09-14T06:41:42;18.70;82.70
51661;DHT22;37741;49.748;8.490;2022-09-14T06:44:08;18.70;82.70
51661;DHT22;37741;49.748;8.490;2022-09-14T06:46:35;18.70;82.80
51661;DHT22;37741;49.748;8.490;2022-09-14T06:49:11;18.70;82.70
51661;DHT22;37741;49.748;8.490;2022-09-14T06:51:39;18.70;82.80
51661;DHT22;37741;49.748;8.490;2022-09-14T06:54:06;18.70;82.70
51661;DHT22;37741;49.748;8.490;2022-09-14T06:56:34;18.70;82.70
51661;DHT22;37741;49.748;8.490;2022-09-14T06:59:01;18.70;82.70
51661;DHT22;37741;49.748;8.490;2022-09-14T07:01:26;18.70;82.60
51661;DHT22;37741;49.748;8.490;2022-09-14T07:03:53;18.70;82.60
51661;DHT22;37741;49.748;8.490;2022-09-14T07:06:24;18.70;82.60
51661;DHT22;37741;49.748;8.490;2022-09-14T07:08:51;18.70;82.50
51661;DHT22;37741;49.748;8.490;2022-09-14T07:11:19;18.70;82.50
51661;DHT22;37741;49.748;8.490;2022-09-14T07:13:46;18.70;82.50
51661;DHT22;37741;49.748;8.490;2022-09-14T07:16:12;18.70;82.50
51661;DHT22;37741;49.748;8.490;2022-09-14T07:18:38;18.70;82.60
51661;DHT22;37741;49.748;8.490;2022-09-14T07:21:07;18.70;82.50
51661;DHT22;37741;49.748;8.490;2022-09-14T07:23:35;18.70;82.40
51661;DHT22;37741;49.748;8.490;2022-09-14T07:26:05;18.70;82.40
51661;DHT22;37741;49.748;8.490;2022-09-14T07:28:32;18.70;82.40
51661;DHT22;37741;49.748;8.490;2022-09-14T07:30:58;18.70;82.30
51661;DHT22;37741;49.748;8.490;2022-09-14T07:33:24;18.70;82.10
51661;DHT22;37741;49.748;8.490;2022-09-14T07:35:49;18.80;82.70
51661;DHT22;37741;49.748;8.490;2022-09-14T07:38:18;18.70;82.90
51661;DHT22;37741;49.748;8.490;2022-09-14T07:40:44;18.80;82.30
51661;DHT22;37741;49.748;8.490;2022-09-14T07:43:10;18.70;83.10
51661;DHT22;37741;49.748;8.490;2022-09-14T07:45:37;18.80;82.70
51661;DHT22;37741;49.748;8.490;2022-09-14T07:48:04;18.80;83.10
51661;DHT22;37741;49.748;8.490;2022-09-14T07:50:30;18.90;83.20
51661;DHT22;37741;49.748;8.490;2022-09-14T07:52:55;18.90;83.10
51661;DHT22;37741;49.748;8.490;2022-09-14T07:55:21;18.90;83.20
51661;DHT22;37741;49.748;8.490;2022-09-14T07:57:47;19.00;83.40
51661;DHT22;37741;49.748;8.490;2022-09-14T08:00:13;19.00;82.70
51661;DHT22;37741;49.748;8.490;2022-09-14T08:02:40;19.00;82.30
51661;DHT22;37741;49.748;8.490;2022-09-14T08:05:06;19.00;82.50
51661;DHT22;37741;49.748;8.490;2022-09-14T08:07:31;19.00;82.40
51661;DHT22;37741;49.748;8.490;2022-09-14T08:09:57;19.10;83.20
51661;DHT22;37741;49.748;8.490;2022-09-14T08:12:23;19.10;82.80
51661;DHT22;37741;49.748;8.490;2022-09-14T08:14:49;19.10;82.40
51661;DHT22;37741;49.748;8.490;2022-09-14T08:17:16;19.10;82.80
51661;DHT22;37741;49.748;8.490;2022-09-14T08:19:42;19.20;83.00
51661;DHT22;37741;49.748;8.490;2022-09-14T08:22:07;19.20;82.30
51661;DHT22;37741;49.748;8.490;2022-09-14T08:24:33;19.20;82.00
51661;DHT22;37741;49.748;8.490;2022-09-14T08:26:59;19.20;82.00
51661;DHT22;37741;49.748;8.490;2022-09-14T08:29:24;19.20;82.30
51661;DHT22;37741;49.748;8.490;2022-09-14T08:31:50;19.30;82.30
51661;DHT22;37741;49.748;8.490;2022-09-14T08:34:16;19.30;82.50
51661;DHT22;37741;49.748;8.490;2022-09-14T08:36:43;19.30;82.50
51661;DHT22;37741;49.748;8.490;2022-09-14T08:39:10;19.30;82.90
51661;DHT22;37741;49.748;8.490;2022-09-14T08:44:28;19.30;82.80
51661;DHT22;37741;49.748;8.490;2022-09-14T08:46:57;19.40;82.40
51661;DHT22;37741;49.748;8.490;2022-09-14T08:49:45;19.30;82.40
51661;DHT22;37741;49.748;8.490;2022-09-14T08:52:35;19.40;82.10
51661;DHT22;37741;49.748;8.490;2022-09-14T08:58:05;19.30;81.70
51661;DHT22;37741;49.748;8.490;2022-09-14T09:03:42;19.30;81.70
51661;DHT22;37741;49.748;8.490;2022-09-14T09:11:57;19.30;81.80
51661;DHT22;37741;49.748;8.490;2022-09-14T09:14:32;19.30;81.80
51661;DHT22;37741;49.748;8.490;2022-09-14T09:17:03;19.30;81.80
51661;DHT22;37741;49.748;8.490;2022-09-14T09:19:33;19.20;81.70
51661;DHT22;37741;49.748;8.490;2022-09-14T09:22:04;19.20;81.80
51661;DHT22;37741;49.748;8.490;2022-09-14T09:24:36;19.30;81.60
51661;DHT22;37741;49.748;8.490;2022-09-14T09:27:12;19.20;81.70
51661;DHT22;37741;49.748;8.490;2022-09-14T09:29:39;19.30;82.00
51661;DHT22;37741;49.748;8.490;2022-09-14T09:32:14;19.20;82.10
51661;DHT22;37741;49.748;8.490;2022-09-14T09:34:40;19.30;82.70
51661;DHT22;37741;49.748;8.490;2022-09-14T09:37:16;19.30;83.20
51661;DHT22;37741;49.748;8.490;2022-09-14T09:39:42;19.30;83.50
51661;DHT22;37741;49.748;8.490;2022-09-14T09:42:20;19.30;83.30
51661;DHT22;37741;49.748;8.490;2022-09-14T09:44:57;19.30;83.30
51661;DHT22;37741;49.748;8.490;2022-09-14T09:47:43;19.30;82.70
51661;DHT22;37741;49.748;8.490;2022-09-14T09:52:49;19.30;82.40
51661;DHT22;37741;49.748;8.490;2022-09-14T09:55:23;19.30;82.60
51661;DHT22;37741;49.748;8.490;2022-09-14T09:57:52;19.30;82.90
51661;DHT22;37741;49.748;8.490;2022-09-14T10:00:26;19.30;82.70
51661;DHT22;37741;49.748;8.490;2022-09-14T10:02:54;19.30;83.10
51661;DHT22;37741;49.748;8.490;2022-09-14T10:05:26;19.30;83.20
51661;DHT22;37741;49.748;8.490;2022-09-14T10:08:05;19.30;83.10
51661;DHT22;37741;49.748;8.490;2022-09-14T10:13:04;19.30;83.20
51661;DHT22;37741;49.748;8.490;2022-09-14T10:15:32;19.40;83.70
51661;DHT22;37741;49.748;8.490;2022-09-14T10:18:25;19.40;83.40
51661;DHT22;37741;49.748;8.490;2022-09-14T10:25:48;19.40;83.30
51661;DHT22;37741;49.748;8.490;2022-09-14T10:28:26;19.50;83.30
51661;DHT22;37741;49.748;8.490;2022-09-14T10:31:01;19.50;85.20
51661;DHT22;37741;49.748;8.490;2022-09-14T10:33:29;19.50;85.60
51661;DHT22;37741;49.748;8.490;2022-09-14T10:36:23;19.50;84.70
51661;DHT22;37741;49.748;8.490;2022-09-14T10:38:52;19.50;84.60
51661;DHT22;37741;49.748;8.490;2022-09-14T10:46:47;19.60;83.30
51661;DHT22;37741;49.748;8.490;2022-09-14T10:52:12;19.60;83.40
51661;DHT22;37741;49.748;8.490;2022-09-14T10:57:55;19.70;83.60
51661;DHT22;37741;49.748;8.490;2022-09-14T11:00:25;19.80;83.40
51661;DHT22;37741;49.748;8.490;2022-09-14T11:03:29;19.80;83.00
51661;DHT22;37741;49.748;8.490;2022-09-14T11:23:02;20.10;83.90
51661;DHT22;37741;49.748;8.490;2022-09-14T11:28:27;20.20;85.60
51661;DHT22;37741;49.748;8.490;2022-09-14T11:31:03;20.30;84.40
51661;DHT22;37741;49.748;8.490;2022-09-14T11:33:39;20.30;84.70
51661;DHT22;37741;49.748;8.490;2022-09-14T11:36:32;20.40;83.50
51661;DHT22;37741;49.748;8.490;2022-09-14T11:39:16;20.40;82.90
51661;DHT22;37741;49.748;8.490;2022-09-14T11:44:25;20.60;82.90
51661;DHT22;37741;49.748;8.490;2022-09-14T11:47:02;20.60;82.30
51661;DHT22;37741;49.748;8.490;2022-09-14T11:49:48;20.70;82.40
51661;DHT22;37741;49.748;8.490;2022-09-14T11:52:17;20.70;81.90
51661;DHT22;37741;49.748;8.490;2022-09-14T11:54:46;20.70;81.90
51661;DHT22;37741;49.748;8.490;2022-09-14T11:57:18;20.80;82.10
51661;DHT22;37741;49.748;8.490;2022-09-14T11:59:51;20.80;81.90
51661;DHT22;37741;49.748;8.490;2022-09-14T12:12:41;21.00;82.70
51661;DHT22;37741;49.748;8.490;2022-09-14T12:17:48;21.10;83.10
51661;DHT22;37741;49.748;8.490;2022-09-14T12:25:38;21.20;81.50
51661;DHT22;37741;49.748;8.490;2022-09-14T12:28:26;21.20;81.10
51661;DHT22;37741;49.748;8.490;2022-09-14T12:36:06;21.30;81.20
51661;DHT22;37741;49.748;8.490;2022-09-14T12:57:03;21.40;81.90
51661;DHT22;37741;49.748;8.490;2022-09-14T12:59:42;21.30;81.40
51661;DHT22;37741;49.748;8.490;2022-09-14T13:05:15;21.30;82.10
51661;DHT22;37741;49.748;8.490;2022-09-14T13:07:41;21.30;81.30
51661;DHT22;37741;49.748;8.490;2022-09-14T13:12:44;21.20;80.70
51661;DHT22;37741;49.748;8.490;2022-09-14T13:20:24;21.20;81.10
51661;DHT22;37741;49.748;8.490;2022-09-14T13:22:50;21.20;83.60
51661;DHT22;37741;49.748;8.490;2022-09-14T13:25:33;21.20;83.30
51661;DHT22;37741;49.748;8.490;2022-09-14T13:28:02;21.20;82.30
51661;DHT22;37741;49.748;8.490;2022-09-14T13:30:29;21.20;84.50
51661;DHT22;37741;49.748;8.490;2022-09-14T13:32:59;21.20;85.00
51661;DHT22;37741;49.748;8.490;2022-09-14T13:35:33;21.20;84.60
51661;DHT22;37741;49.748;8.490;2022-09-14T13:40:49;21.20;86.80
51661;DHT22;37741;49.748;8.490;2022-09-14T13:43:17;21.20;83.90
51661;DHT22;37741;49.748;8.490;2022-09-14T13:45:48;21.20;83.00
51661;DHT22;37741;49.748;8.490;2022-09-14T13:48:15;21.20;83.60
51661;DHT22;37741;49.748;8.490;2022-09-14T13:50:44;21.20;83.50
51661;DHT22;37741;49.748;8.490;2022-09-14T13:53:46;21.30;82.20
51661;DHT22;37741;49.748;8.490;2022-09-14T13:56:29;21.30;83.90
51661;DHT22;37741;49.748;8.490;2022-09-14T14:01:53;21.30;82.90
51661;DHT22;37741;49.748;8.490;2022-09-14T14:10:38;21.30;83.50
51661;DHT22;37741;49.748;8.490;2022-09-14T14:13:09;21.30;82.40
51661;DHT22;37741;49.748;8.490;2022-09-14T14:15:38;21.30;82.90
51661;DHT22;37741;49.748;8.490;2022-09-14T14:18:36;21.30;83.10
51661;DHT22;37741;49.748;8.490;2022-09-14T14:27:42;21.30;83.20
51661;DHT22;37741;49.748;8.490;2022-09-14T14:40:48;21.30;83.30
51661;DHT22;37741;49.748;8.490;2022-09-14T14:46:36;21.30;84.00
51661;DHT22;37741;49.748;8.490;2022-09-14T14:49:01;21.40;84.60
51661;DHT22;37741;49.748;8.490;2022-09-14T14:51:27;21.30;85.00
51661;DHT22;37741;49.748;8.490;2022-09-14T14:53:53;21.30;83.20
51661;DHT22;37741;49.748;8.490;2022-09-14T14:56:21;21.40;83.20
51661;DHT22;37741;49.748;8.490;2022-09-14T14:58:47;21.30;83.70
51661;DHT22;37741;49.748;8.490;2022-09-14T15:01:13;21.40;84.60
51661;DHT22;37741;49.748;8.490;2022-09-14T15:03:38;21.40;83.90
51661;DHT22;37741;49.748;8.490;2022-09-14T15:06:22;21.30;84.50
51661;DHT22;37741;49.748;8.490;2022-09-14T15:12:35;21.40;84.70
51661;DHT22;37741;49.748;8.490;2022-09-14T15:18:34;21.40;85.20
51661;DHT22;37741;49.748;8.490;2022-09-14T15:27:55;21.50;84.50
51661;DHT22;37741;49.748;8.490;2022-09-14T15:33:43;21.50;84.30
51661;DHT22;37741;49.748;8.490;2022-09-14T15:36:08;21.60;84.20
51661;DHT22;37741;49.748;8.490;2022-09-14T15:38:34;21.60;83.90
51661;DHT22;37741;49.748;8.490;2022-09-14T15:44:10;21.60;84.00
51661;DHT22;37741;49.748;8.490;2022-09-14T15:50:02;21.60;83.50
51661;DHT22;37741;49.748;8.490;2022-09-14T15:52:29;21.60;83.40
51661;DHT22;37741;49.748;8.490;2022-09-14T15:54:55;21.60;83.20
51661;DHT22;37741;49.748;8.490;2022-09-14T15:57:21;21.60;83.10
51661;DHT22;37741;49.748;8.490;2022-09-14T15:59:46;21.60;82.90
51661;DHT22;37741;49.748;8.490;2022-09-14T16:02:12;21.60;83.00
51661;DHT22;37741;49.748;8.490;2022-09-14T16:04:38;21.60;82.80
51661;DHT22;37741;49.748;8.490;2022-09-14T16:07:06;21.60;82.90
51661;DHT22;37741;49.748;8.490;2022-09-14T16:09:35;21.70;82.50
51661;DHT22;37741;49.748;8.490;2022-09-14T16:12:01;21.70;82.50
51661;DHT22;37741;49.748;8.490;2022-09-14T16:14:26;21.70;82.60
51661;DHT22;37741;49.748;8.490;2022-09-14T16:16:52;21.60;82.70
51661;DHT22;37741;49.748;8.490;2022-09-14T16:19:17;21.60;82.50
51661;DHT22;37741;49.748;8.490;2022-09-14T16:21:43;21.60;82.40
51661;DHT22;37741;49.748;8.490;2022-09-14T16:24:15;21.60;82.50
51661;DHT22;37741;49.748;8.490;2022-09-14T16:26:42;21.60;82.60
51661;DHT22;37741;49.748;8.490;2022-09-14T16:29:12;21.60;82.50
51661;DHT22;37741;49.748;8.490;2022-09-14T16:31:40;21.60;82.70
51661;DHT22;37741;49.748;8.490;2022-09-14T16:34:12;21.60;82.80
51661;DHT22;37741;49.748;8.490;2022-09-14T16:36:39;21.60;82.80
51661;DHT22;37741;49.748;8.490;2022-09-14T16:39:08;21.60;82.70
51661;DHT22;37741;49.748;8.490;2022-09-14T16:41:34;21.50;82.50
51661;DHT22;37741;49.748;8.490;2022-09-14T16:44:03;21.50;82.40
51661;DHT22;37741;49.748;8.490;2022-09-14T16:46:30;21.50;82.40
51661;DHT22;37741;49.748;8.490;2022-09-14T16:48:56;21.50;82.60
51661;DHT22;37741;49.748;8.490;2022-09-14T16:51:27;21.50;82.30
51661;DHT22;37741;49.748;8.490;2022-09-14T16:53:53;21.40;82.60
51661;DHT22;37741;49.748;8.490;2022-09-14T16:56:27;21.40;82.60
51661;DHT22;37741;49.748;8.490;2022-09-14T16:58:55;21.40;82.60
51661;DHT22;37741;49.748;8.490;2022-09-14T17:01:27;21.40;82.90
51661;DHT22;37741;49.748;8.490;2022-09-14T17:03:54;21.40;82.90
51661;DHT22;37741;49.748;8.490;2022-09-14T17:06:23;21.30;82.90
51661;DHT22;37741;49.748;8.490;2022-09-14T17:11:18;21.30;83.30
51661;DHT22;37741;49.748;8.490;2022-09-14T17:13:45;21.20;83.00
51661;DHT22;37741;49.748;8.490;2022-09-14T17:16:16;21.20;83.40
51661;DHT22;37741;49.748;8.490;2022-09-14T17:18:44;21.30;83.60
51661;DHT22;37741;49.748;8.490;2022-09-14T17:21:15;21.20;83.40
51661;DHT22;37741;49.748;8.490;2022-09-14T17:23:41;21.20;83.00
51661;DHT22;37741;49.748;8.490;2022-09-14T17:26:10;21.20;83.30
51661;DHT22;37741;49.748;8.490;2022-09-14T17:28:36;21.20;82.80
51661;DHT22;37741;49.748;8.490;2022-09-14T17:31:04;21.20;82.60
51661;DHT22;37741;49.748;8.490;2022-09-14T17:33:30;21.20;82.80
51661;DHT22;37741;49.748;8.490;2022-09-14T17:35:58;21.20;82.50
51661;DHT22;37741;49.748;8.490;2022-09-14T17:38:28;21.10;82.50
51661;DHT22;37741;49.748;8.490;2022-09-14T17:41:19;21.10;82.50
51661;DHT22;37741;49.748;8.490;2022-09-14T17:43:50;21.10;82.60
51661;DHT22;37741;49.748;8.490;2022-09-14T17:46:15;21.10;83.00
51661;DHT22;37741;49.748;8.490;2022-09-14T17:48:42;21.10;83.00
51661;DHT22;37741;49.748;8.490;2022-09-14T17:51:14;21.10;82.90
51661;DHT22;37741;49.748;8.490;2022-09-14T17:53:43;21.10;82.60
51661;DHT22;37741;49.748;8.490;2022-09-14T17:56:11;21.00;82.70
51661;DHT22;37741;49.748;8.490;2022-09-14T17:58:37;21.00;82.70
51661;DHT22;37741;49.748;8.490;2022-09-14T18:01:12;21.00;82.80
51661;DHT22;37741;49.748;8.490;2022-09-14T18:03:39;21.00;82.70
51661;DHT22;37741;49.748;8.490;2022-09-14T18:06:07;21.00;82.60
51661;DHT22;37741;49.748;8.490;2022-09-14T18:08:33;21.00;82.70
51661;DHT22;37741;49.748;8.490;2022-09-14T18:11:07;21.00;82.70
51661;DHT22;37741;49.748;8.490;2022-09-14T18:13:33;21.00;82.90
51661;DHT22;37741;49.748;8.490;2022-09-14T18:15:59;20.90;82.70
51661;DHT22;37741;49.748;8.490;2022-09-14T18:18:31;20.90;82.70
51661;DHT22;37741;49.748;8.490;2022-09-14T18:20:58;20.90;82.60
51661;DHT22;37741;49.748;8.490;2022-09-14T18:23:25;20.90;82.70
51661;DHT22;37741;49.748;8.490;2022-09-14T18:25:51;20.90;82.60
51661;DHT22;37741;49.748;8.490;2022-09-14T18:28:17;20.80;82.60
51661;DHT22;37741;49.748;8.490;2022-09-14T18:30:42;20.80;82.40
51661;DHT22;37741;49.748;8.490;2022-09-14T18:33:08;20.80;82.30
51661;DHT22;37741;49.748;8.490;2022-09-14T18:35:36;20.80;82.50
51661;DHT22;37741;49.748;8.490;2022-09-14T18:38:02;20.80;82.50
51661;DHT22;37741;49.748;8.490;2022-09-14T18:40:28;20.70;83.10
51661;DHT22;37741;49.748;8.490;2022-09-14T18:42:53;20.70;82.60
51661;DHT22;37741;49.748;8.490;2022-09-14T18:45:19;20.70;82.60
51661;DHT22;37741;49.748;8.490;2022-09-14T18:47:44;20.70;82.70
51661;DHT22;37741;49.748;8.490;2022-09-14T18:50:10;20.60;82.70
51661;DHT22;37741;49.748;8.490;2022-09-14T18:52:36;20.60;82.70
51661;DHT22;37741;49.748;8.490;2022-09-14T18:55:01;20.60;82.80
51661;DHT22;37741;49.748;8.490;2022-09-14T18:57:27;20.60;82.90
51661;DHT22;37741;49.748;8.490;2022-09-14T18:59:53;20.60;83.00
51661;DHT22;37741;49.748;8.490;2022-09-14T19:02:18;20.50;83.20
51661;DHT22;37741;49.748;8.490;2022-09-14T19:04:44;20.50;83.40
51661;DHT22;37741;49.748;8.490;2022-09-14T19:07:09;20.50;83.10
51661;DHT22;37741;49.748;8.490;2022-09-14T19:09:35;20.50;83.10
51661;DHT22;37741;49.748;8.490;2022-09-14T19:12:01;20.60;83.20
51661;DHT22;37741;49.748;8.490;2022-09-14T19:14:27;20.60;83.10